Time;durP1;ratioP1;P1;durP2;ratioP2;P2;SDS_P1;SDS_P2;PMS_P1;PMS_P2;Temp;Humidity;BMP_temperature;BMP_pressure;BME280_temperature;BME280_humidity;BME280_pressure;Samples;Min_cycle;Max_cycle;Signal;HPM_P1;HPM_P2
2023/03/28 00:01:13;;;;;;;21.33;3.33;;;;;;;2.15;100.00;102370.94;4904442;29;20036;-80
2023/03/28 00:03:39;;;;;;;12.63;2.95;;;;;;;2.12;100.00;102368.28;4905673;29;20059;-81
2023/03/28 00:06:10;;;;;;;20.83;3.15;;;;;;;1.97;100.00;102370.34;4904673;29;20036;-82
2023/03/28 00:08:38;;;;;;;29.75;3.30;;;;;;;2.08;100.00;102366.56;4887451;29;20569;-82
2023/03/28 00:11:18;;;;;;;25.92;4.05;;;;;;;1.92;100.00;102364.16;4889241;29;20102;-79
2023/03/28 00:14:02;;;;;;;27.83;3.05;;;;;;;2.12;100.00;102365.59;4893045;29;20032;-79
2023/03/28 00:16:31;;;;;;;19.40;2.90;;;;;;;1.97;100.00;102367.66;4888618;29;20041;-80
2023/03/28 00:18:59;;;;;;;16.70;3.00;;;;;;;1.95;100.00;102357.78;4905402;29;20036;-79
2023/03/28 00:21:32;;;;;;;19.23;4.65;;;;;;;1.98;100.00;102355.03;4905316;29;20040;-78
2023/03/28 00:24:03;;;;;;;26.23;3.03;;;;;;;1.88;100.00;102362.41;4905746;29;20063;-80
2023/03/28 00:26:34;;;;;;;14.02;3.95;;;;;;;1.76;100.00;102352.72;4857605;29;20054;-80
2023/03/28 00:29:05;;;;;;;14.18;3.60;;;;;;;1.77;100.00;102353.63;4897734;29;20110;-79
2023/03/28 00:31:33;;;;;;;17.17;3.80;;;;;;;1.90;100.00;102355.16;4905671;29;20063;-78
2023/03/28 00:33:59;;;;;;;25.75;4.25;;;;;;;1.87;100.00;102351.63;4920781;29;20039;-79
2023/03/28 00:36:28;;;;;;;14.77;2.60;;;;;;;1.78;100.00;102364.38;4904528;29;20051;-79
2023/03/28 00:38:56;;;;;;;19.15;3.30;;;;;;;1.65;100.00;102350.22;4872120;29;20060;-81
2023/03/28 00:41:23;;;;;;;17.67;2.80;;;;;;;1.70;100.00;102360.94;4882046;29;20039;-80
2023/03/28 00:43:52;;;;;;;26.95;3.30;;;;;;;1.72;100.00;102358.22;4885277;29;20508;-79
2023/03/28 00:46:23;;;;;;;21.80;2.88;;;;;;;1.67;100.00;102362.81;4874811;29;20071;-79
2023/03/28 00:48:53;;;;;;;16.48;3.20;;;;;;;1.65;100.00;102343.94;4903070;29;20040;-79
2023/03/28 00:51:24;;;;;;;18.58;3.13;;;;;;;1.67;100.00;102355.59;4909230;29;20040;-79
2023/03/28 00:53:52;;;;;;;16.15;3.28;;;;;;;1.67;100.00;102350.19;4875022;29;20470;-80
2023/03/28 00:56:22;;;;;;;11.75;2.83;;;;;;;1.64;100.00;102352.94;4890068;29;20095;-79
2023/03/28 00:58:49;;;;;;;16.73;2.92;;;;;;;1.43;100.00;102348.81;4900197;29;20033;-79
2023/03/28 01:01:18;;;;;;;9.85;2.80;;;;;;;1.34;100.00;102352.53;4863060;29;20488;-80
2023/03/28 01:03:48;;;;;;;27.30;4.05;;;;;;;1.39;100.00;102356.06;4888815;29;20032;-80
2023/03/28 01:06:15;;;;;;;26.70;3.47;;;;;;;1.38;100.00;102361.50;4895082;29;20040;-80
2023/03/28 01:08:43;;;;;;;23.73;3.58;;;;;;;1.36;100.00;102368.72;4921417;29;20502;-80
2023/03/28 01:11:13;;;;;;;21.70;3.42;;;;;;;1.26;100.00;102367.97;4885266;29;20071;-80
2023/03/28 01:13:47;;;;;;;15.40;3.63;;;;;;;1.21;100.00;102368.03;4885970;29;20484;-80
2023/03/28 01:16:14;;;;;;;21.50;3.22;;;;;;;1.19;100.00;102364.47;4889610;29;20028;-80
2023/03/28 01:18:40;;;;;;;28.70;5.95;;;;;;;1.19;100.00;102359.09;4905277;29;20040;-81
2023/03/28 01:21:47;;;;;;;29.42;4.20;;;;;;;1.33;100.00;102366.97;4905921;29;20143;-79
2023/03/28 01:24:31;;;;;;;18.77;4.30;;;;;;;1.27;100.00;102364.38;4874808;29;20035;-79
2023/03/28 01:27:14;;;;;;;19.58;4.97;;;;;;;1.25;100.00;102368.91;4900048;29;20031;-79
2023/03/28 01:30:02;;;;;;;15.25;4.13;;;;;;;1.25;100.00;102366.22;4892091;29;20036;-80
2023/03/28 01:32:42;;;;;;;12.50;3.30;;;;;;;1.31;100.00;102367.91;4902049;29;20381;-81
2023/03/28 01:35:31;;;;;;;24.98;4.50;;;;;;;1.31;100.00;102363.38;4887026;29;20029;-81
2023/03/28 01:38:08;;;;;;;20.52;4.65;;;;;;;1.31;100.00;102359.81;4916900;29;20044;-80
2023/03/28 01:41:11;;;;;;;15.45;3.88;;;;;;;1.37;100.00;102365.13;4902582;29;20107;-79
2023/03/28 01:43:40;;;;;;;13.50;4.38;;;;;;;1.35;100.00;102357.03;4904103;29;20036;-79
2023/03/28 01:46:15;;;;;;;25.80;4.18;;;;;;;1.39;100.00;102361.44;4914253;29;20075;-80
2023/03/28 01:49:15;;;;;;;22.45;4.72;;;;;;;1.19;100.00;102351.00;4894940;29;20040;-80
2023/03/28 01:52:02;;;;;;;16.92;4.70;;;;;;;1.15;100.00;102351.97;4898771;29;20045;-79
2023/03/28 01:54:45;;;;;;;27.30;5.00;;;;;;;1.16;100.00;102352.84;4905016;29;20043;-80
2023/03/28 01:57:18;;;;;;;;;;;;;;;1.08;100.00;102352.97;4892145;29;20103;-80
2023/03/28 02:00:05;;;;;;;12.40;4.10;;;;;;;1.06;100.00;102342.19;4891493;29;19993;-80
2023/03/28 02:02:37;;;;;;;17.42;4.60;;;;;;;1.03;100.00;102342.28;4906105;29;20307;-79
2023/03/28 02:05:10;;;;;;;16.00;4.68;;;;;;;1.00;100.00;102344.09;4925926;29;20084;-79
2023/03/28 02:07:39;;;;;;;15.47;5.43;;;;;;;1.16;100.00;102332.16;4874904;29;20072;-79
2023/03/28 02:10:07;;;;;;;20.92;4.72;;;;;;;1.09;100.00;102338.56;4908604;29;20060;-79
2023/03/28 02:12:42;;;;;;;24.52;4.97;;;;;;;1.16;100.00;102339.38;4887862;29;20075;-79
2023/03/28 02:15:13;;;;;;;22.52;4.97;;;;;;;1.21;100.00;102329.38;4919283;29;20380;-79
2023/03/28 02:17:44;;;;;;;24.63;5.00;;;;;;;1.10;100.00;102340.38;4899154;29;20476;-80
2023/03/28 02:20:18;;;;;;;35.80;5.22;;;;;;;1.07;100.00;102348.50;4892190;29;20029;-78
2023/03/28 02:22:49;;;;;;;14.52;4.38;;;;;;;1.07;100.00;102345.81;4924516;29;20048;-78
2023/03/28 02:25:14;;;;;;;17.23;5.93;;;;;;;1.21;100.00;102343.75;4891715;29;20058;-79
2023/03/28 02:27:44;;;;;;;17.63;4.70;;;;;;;0.96;100.00;102339.69;4896214;29;20050;-80
2023/03/28 02:30:14;;;;;;;28.27;5.57;;;;;;;0.99;100.00;102331.53;4908748;29;20032;-79
2023/03/28 02:32:42;;;;;;;25.23;5.40;;;;;;;1.03;100.00;102344.97;4925013;29;20040;-80
2023/03/28 02:35:09;;;;;;;15.57;5.25;;;;;;;1.06;100.00;102344.00;4909095;29;20036;-80
2023/03/28 02:38:01;;;;;;;19.17;5.38;;;;;;;0.98;100.00;102349.50;4907559;29;20036;-80
2023/03/28 02:40:46;;;;;;;20.13;5.68;;;;;;;1.06;100.00;102341.31;4896537;29;20130;-79
2023/03/28 02:43:44;;;;;;;18.05;5.40;;;;;;;1.01;100.00;102345.88;4929729;29;20039;-79
2023/03/28 02:46:39;;;;;;;30.50;5.15;;;;;;;1.07;100.00;102348.50;4894479;29;20123;-79
2023/03/28 02:49:27;;;;;;;22.95;5.60;;;;;;;1.12;100.00;102338.53;4907922;29;20107;-79
2023/03/28 02:51:58;;;;;;;20.80;5.65;;;;;;;1.07;100.00;102335.91;4923100;29;20040;-80
2023/03/28 02:54:51;;;;;;;15.43;5.75;;;;;;;1.02;100.00;102343.16;4905036;29;20134;-79
2023/03/28 02:57:23;;;;;;;12.60;4.65;;;;;;;0.98;100.00;102340.53;4907340;29;20035;-79
2023/03/28 03:00:11;;;;;;;22.23;6.60;;;;;;;0.94;100.00;102330.72;4907947;29;20036;-78
2023/03/28 03:02:41;;;;;;;24.83;6.18;;;;;;;0.98;100.00;102324.34;4907361;29;20048;-78
2023/03/28 03:05:08;;;;;;;14.60;5.32;;;;;;;1.07;100.00;102340.41;4905759;29;20043;-79
2023/03/28 03:07:36;;;;;;;17.30;5.70;;;;;;;1.04;100.00;102330.53;4905776;29;20051;-79
2023/03/28 03:10:05;;;;;;;28.02;6.40;;;;;;;0.91;100.00;102321.75;4905782;29;20403;-80
2023/03/28 03:12:31;;;;;;;16.20;5.45;;;;;;;0.97;100.00;102325.25;4923703;29;20064;-80
2023/03/28 03:14:59;;;;;;;14.93;5.75;;;;;;;0.94;100.00;102336.13;4891677;29;20036;-81
2023/03/28 03:17:26;;;;;;;16.90;5.40;;;;;;;0.91;100.00;102329.84;4887486;29;20053;-80
2023/03/28 03:19:51;;;;;;;18.25;5.53;;;;;;;0.82;100.00;102334.47;4921953;29;20047;-80
2023/03/28 03:22:17;;;;;;;25.38;5.70;;;;;;;0.93;100.00;102328.94;4907138;29;20040;-80
2023/03/28 03:24:43;;;;;;;26.10;5.50;;;;;;;0.96;100.00;102337.88;4922412;29;20050;-80
2023/03/28 03:27:08;;;;;;;17.95;5.53;;;;;;;0.94;100.00;102334.31;4892491;29;20056;-80
2023/03/28 03:29:35;;;;;;;15.93;6.18;;;;;;;0.97;100.00;102336.97;4889660;29;20041;-80
2023/03/28 03:32:00;;;;;;;27.65;5.20;;;;;;;0.81;100.00;102346.19;4905805;29;20413;-80
2023/03/28 03:34:26;;;;;;;21.02;5.70;;;;;;;0.81;100.00;102344.38;4891778;29;20039;-80
2023/03/28 03:36:53;;;;;;;21.83;6.57;;;;;;;0.84;100.00;102336.25;4923326;29;20047;-80
2023/03/28 03:39:20;;;;;;;20.35;5.35;;;;;;;0.64;100.00;102332.94;4888177;29;20032;-80
2023/03/28 03:41:46;;;;;;;17.58;4.68;;;;;;;0.58;100.00;102336.63;4889007;29;20036;-80
2023/03/28 03:44:12;;;;;;;21.17;5.05;;;;;;;0.61;100.00;102324.88;4861184;29;20040;-81
2023/03/28 03:46:37;;;;;;;17.13;4.43;;;;;;;0.69;100.00;102340.06;4905263;29;20059;-81
2023/03/28 03:49:03;;;;;;;52.28;28.38;;;;;;;0.66;100.00;102339.22;4872191;29;20044;-80
2023/03/28 03:51:28;;;;;;;69.03;7.47;;;;;;;0.78;100.00;102338.16;4883601;29;20123;-80
2023/03/28 03:53:56;;;;;;;24.58;6.35;;;;;;;0.84;100.00;102338.06;4907048;29;20048;-80
2023/03/28 03:56:22;;;;;;;16.33;4.43;;;;;;;0.73;100.00;102341.78;4902036;29;20473;-80
2023/03/28 03:58:48;;;;;;;17.98;5.07;;;;;;;0.73;100.00;102344.47;4875845;29;20484;-82
2023/03/28 04:01:13;;;;;;;26.52;5.60;;;;;;;0.48;100.00;102318.78;4891138;29;20043;-81
2023/03/28 04:03:40;;;;;;;21.45;5.57;;;;;;;0.51;100.00;102335.81;4920037;29;20056;-81
2023/03/28 04:06:06;;;;;;;23.55;5.43;;;;;;;0.68;100.00;102338.25;4884829;29;20036;-81
2023/03/28 04:08:32;;;;;;;22.25;6.13;;;;;;;0.62;100.00;102338.34;4866532;29;20556;-82
2023/03/28 04:10:58;;;;;;;15.45;5.38;;;;;;;0.84;100.00;102333.56;4870070;29;20044;-82
2023/03/28 04:13:23;;;;;;;30.55;5.68;;;;;;;0.69;100.00;102334.66;4870191;29;20037;-83
2023/03/28 04:15:49;;;;;;;20.83;5.85;;;;;;;0.64;100.00;102331.16;4881034;29;20049;-81
2023/03/28 04:18:16;;;;;;;24.90;6.15;;;;;;;0.74;100.00;102342.69;4870845;29;20069;-82
2023/03/28 04:20:45;;;;;;;34.10;8.07;;;;;;;0.62;100.00;102342.84;4854450;29;20073;-82
2023/03/28 04:23:11;;;;;;;23.98;7.03;;;;;;;0.65;100.00;102329.34;4878847;29;20040;-82
2023/03/28 04:25:40;;;;;;;21.63;7.70;;;;;;;0.64;100.00;102338.31;4856170;29;20052;-83
2023/03/28 04:28:08;;;;;;;29.40;8.05;;;;;;;0.66;100.00;102333.81;4864072;29;20469;-82
2023/03/28 04:30:34;;;;;;;22.35;7.45;;;;;;;0.68;100.00;102334.69;4867639;29;20032;-82
2023/03/28 04:33:00;;;;;;;38.90;7.70;;;;;;;0.62;100.00;102329.38;4886933;29;20090;-81
2023/03/28 04:35:28;;;;;;;30.48;8.60;;;;;;;0.72;100.00;102331.03;4882442;29;20195;-82
2023/03/28 04:37:57;;;;;;;28.02;8.95;;;;;;;0.62;100.00;102321.28;4885484;29;20663;-80
2023/03/28 04:40:26;;;;;;;30.00;9.40;;;;;;;0.88;100.00;102323.59;4865775;29;20573;-80
2023/03/28 04:42:53;;;;;;;28.85;8.13;;;;;;;0.79;100.00;102327.34;4867446;29;20044;-81
2023/03/28 04:45:19;;;;;;;25.00;9.73;;;;;;;0.53;100.00;102319.63;4899875;29;20476;-81
2023/03/28 04:47:45;;;;;;;27.48;9.68;;;;;;;0.42;100.00;102325.13;4883173;29;20200;-79
2023/03/28 04:50:11;;;;;;;24.15;9.40;;;;;;;0.46;100.00;102323.28;4902059;29;20089;-81
2023/03/28 04:52:37;;;;;;;27.60;9.05;;;;;;;0.20;100.00;102310.16;4885241;29;20037;-79
2023/03/28 04:55:04;;;;;;;30.85;9.48;;;;;;;0.38;100.00;102333.28;4903010;29;20036;-80
2023/03/28 04:57:30;;;;;;;46.95;10.85;;;;;;;0.38;100.00;102325.19;4885980;29;20115;-80
2023/03/28 04:59:55;;;;;;;30.10;10.30;;;;;;;0.45;100.00;102337.69;4885440;29;20088;-80
2023/03/28 05:02:21;;;;;;;31.88;11.40;;;;;;;0.46;100.00;102320.59;4899696;29;20047;-80
2023/03/28 05:04:46;;;;;;;29.25;10.40;;;;;;;0.44;100.00;102338.59;4885557;29;20047;-81
2023/03/28 05:07:12;;;;;;;32.45;11.15;;;;;;;0.36;100.00;102334.22;4874916;29;20135;-80
2023/03/28 05:09:37;;;;;;;36.38;12.07;;;;;;;0.33;100.00;102339.63;4904908;29;20036;-80
2023/03/28 05:12:03;;;;;;;37.17;11.45;;;;;;;0.34;100.00;102335.13;4889200;29;20054;-80
2023/03/28 05:14:28;;;;;;;33.63;11.98;;;;;;;0.39;100.00;102344.03;4905777;29;20491;-80
2023/03/28 05:16:54;;;;;;;35.50;11.55;;;;;;;0.52;100.00;102347.47;4885999;29;20504;-80
2023/03/28 05:19:20;;;;;;;40.55;12.80;;;;;;;0.42;100.00;102338.59;4918546;29;20070;-80
2023/03/28 05:21:46;;;;;;;26.63;12.88;;;;;;;0.40;100.00;102350.34;4902766;29;20119;-80
2023/03/28 05:24:11;;;;;;;37.40;13.43;;;;;;;0.49;100.00;102347.50;4897216;29;20087;-80
2023/03/28 05:26:37;;;;;;;39.55;13.13;;;;;;;0.61;100.00;102357.22;4902129;29;20123;-80
2023/03/28 05:29:03;;;;;;;37.47;13.88;;;;;;;0.47;100.00;102361.00;4904538;29;20047;-80
2023/03/28 05:31:29;;;;;;;39.20;12.40;;;;;;;0.41;100.00;102355.72;4888521;29;20028;-80
2023/03/28 05:33:55;;;;;;;46.53;15.75;;;;;;;0.40;100.00;102362.00;4890797;29;20060;-80
2023/03/28 05:36:22;;;;;;;33.85;13.57;;;;;;;0.45;100.00;102367.34;4904803;29;20488;-80
2023/03/28 05:38:48;;;;;;;41.13;14.10;;;;;;;0.40;100.00;102358.41;4892657;29;20057;-80
2023/03/28 05:41:14;;;;;;;46.67;17.08;;;;;;;0.31;100.00;102356.72;4863965;29;20036;-79
2023/03/28 05:43:39;;;;;;;34.38;13.98;;;;;;;0.35;100.00;102361.16;4903767;29;20146;-79
2023/03/28 05:46:06;;;;;;;42.75;16.42;;;;;;;0.49;100.00;102367.28;4905240;29;20036;-79
2023/03/28 05:48:31;;;;;;;47.88;15.48;;;;;;;0.47;100.00;102350.22;4889735;29;20036;-80
2023/03/28 05:50:57;;;;;;;53.65;15.68;;;;;;;0.57;100.00;102367.16;4877046;29;20130;-79
2023/03/28 05:53:24;;;;;;;43.28;16.38;;;;;;;0.58;100.00;102360.00;4915374;29;20035;-79
2023/03/28 05:55:50;;;;;;;36.47;14.88;;;;;;;0.72;100.00;102356.19;4906148;29;20040;-80
2023/03/28 05:58:17;;;;;;;35.28;14.93;;;;;;;0.71;100.00;102375.06;4890915;29;20048;-79
2023/03/28 06:00:43;;;;;;;37.28;15.45;;;;;;;0.73;100.00;102371.44;4881200;29;20401;-79
2023/03/28 06:03:09;;;;;;;45.17;15.45;;;;;;;0.83;100.00;102366.81;4872420;29;20040;-79
2023/03/28 06:05:36;;;;;;;46.53;15.70;;;;;;;0.84;100.00;102374.00;4881597;29;20036;-81
2023/03/28 06:08:04;;;;;;;52.35;15.70;;;;;;;1.01;100.00;102364.78;4916013;29;20072;-79
2023/03/28 06:10:30;;;;;;;49.88;16.58;;;;;;;1.14;100.00;102368.19;4877532;29;20048;-80
2023/03/28 06:12:55;;;;;;;46.83;15.23;;;;;;;0.97;100.00;102353.16;4892843;29;20072;-79
2023/03/28 06:15:21;;;;;;;51.65;14.93;;;;;;;0.95;100.00;102363.03;4903975;29;20064;-80
2023/03/28 06:17:48;;;;;;;42.85;13.63;;;;;;;1.23;100.00;102368.94;4905029;29;20047;-80
2023/03/28 06:20:14;;;;;;;35.83;13.98;;;;;;;1.35;100.00;102375.03;4894187;29;20142;-79
2023/03/28 06:22:39;;;;;;;43.00;15.43;;;;;;;1.44;100.00;102355.97;4909958;29;20095;-79
2023/03/28 06:25:06;;;;;;;48.92;16.25;;;;;;;1.52;100.00;102367.53;4921876;29;20040;-80
2023/03/28 06:27:33;;;;;;;38.58;14.80;;;;;;;1.77;100.00;102367.13;4885296;29;20119;-79
2023/03/28 06:29:58;;;;;;;51.63;14.32;;;;;;;1.76;100.00;102371.63;4871752;29;20053;-80
2023/03/28 06:32:25;;;;;;;37.72;14.23;;;;;;;1.87;100.00;102365.13;4905452;29;20370;-81
2023/03/28 06:34:51;;;;;;;40.05;14.07;;;;;;;1.98;100.00;102366.75;4876212;29;20037;-82
2023/03/28 06:37:18;;;;;;;32.95;13.85;;;;;;;2.29;100.00;102379.63;4904856;29;20084;-81
2023/03/28 06:39:43;;;;;;;43.67;12.65;;;;;;;2.32;100.00;102365.19;4889860;29;20071;-78
2023/03/28 06:42:09;;;;;;;40.83;13.77;;;;;;;2.54;100.00;102366.53;4898698;29;20045;-80
2023/03/28 06:44:35;;;;;;;40.88;13.35;;;;;;;2.52;100.00;102367.47;4896946;29;20032;-82
2023/03/28 06:47:04;;;;;;;40.22;12.68;;;;;;;2.53;100.00;102371.97;4909423;29;20048;-81
2023/03/28 06:49:29;;;;;;;40.65;13.88;;;;;;;2.71;100.00;102367.97;4876274;29;20040;-79
2023/03/28 06:51:55;;;;;;;36.60;11.98;;;;;;;2.77;100.00;102381.34;4905942;29;20043;-80
2023/03/28 06:54:20;;;;;;;32.25;11.68;;;;;;;2.61;100.00;102375.41;4915062;29;20047;-80
2023/03/28 06:56:46;;;;;;;40.95;12.63;;;;;;;2.72;100.00;102365.25;4907409;29;20119;-81
2023/03/28 06:59:11;;;;;;;33.88;11.98;;;;;;;2.58;100.00;102375.47;4899618;29;20127;-79
2023/03/28 07:01:37;;;;;;;43.05;13.65;;;;;;;2.48;100.00;102379.28;4925066;29;20488;-79
2023/03/28 07:04:02;;;;;;;32.22;11.75;;;;;;;2.44;100.00;102373.03;4893935;29;20506;-80
2023/03/28 07:06:28;;;;;;;37.35;12.35;;;;;;;2.56;100.00;102375.50;4875867;29;20380;-81
2023/03/28 07:08:57;;;;;;;27.77;11.65;;;;;;;2.42;100.00;102371.28;4877627;29;20048;-81
2023/03/28 07:11:23;;;;;;;40.60;12.88;;;;;;;2.61;100.00;102374.47;4879830;29;20108;-80
2023/03/28 07:13:48;;;;;;;34.08;13.23;;;;;;;2.72;100.00;102377.84;4887371;29;20040;-82
2023/03/28 07:16:15;;;;;;;40.22;13.23;;;;;;;2.87;100.00;102385.66;4893438;29;20031;-80
2023/03/28 07:18:41;;;;;;;42.92;12.95;;;;;;;3.08;100.00;102367.13;4891289;29;20036;-81
2023/03/28 07:21:15;;;;;;;36.80;12.38;;;;;;;3.24;100.00;102394.72;4882938;29;20032;-81
2023/03/28 07:23:43;;;;;;;28.95;11.13;;;;;;;3.42;100.00;102388.88;4910267;29;20047;-80
2023/03/28 07:26:10;;;;;;;39.63;11.68;;;;;;;3.53;100.00;102395.84;4891067;29;20490;-82
2023/03/28 07:28:36;;;;;;;35.50;12.15;;;;;;;3.81;100.00;102396.03;4905858;29;20138;-81
2023/03/28 07:31:03;;;;;;;27.20;10.88;;;;;;;3.82;100.00;102400.50;4914674;29;20052;-83
2023/03/28 07:33:30;;;;;;;30.38;10.80;;;;;;;3.65;100.00;102398.25;4880392;29;20037;-82
2023/03/28 07:35:56;;;;;;;27.95;9.88;;;;;;;3.72;100.00;102398.97;4887508;29;20157;-81
2023/03/28 07:38:21;;;;;;;47.83;11.48;;;;;;;3.93;100.00;102402.94;4925166;29;20486;-83
2023/03/28 07:40:47;;;;;;;30.52;10.35;;;;;;;4.07;100.00;102411.63;4890386;29;20132;-82
2023/03/28 07:43:12;;;;;;;27.58;9.25;;;;;;;4.17;100.00;102396.88;4894705;29;20040;-81
2023/03/28 07:45:38;;;;;;;39.05;10.50;;;;;;;4.22;100.00;102419.31;4895850;29;20043;-80
2023/03/28 07:48:05;;;;;;;33.03;10.20;;;;;;;4.29;100.00;102419.16;4898687;29;20039;-81
2023/03/28 07:50:31;;;;;;;23.17;9.05;;;;;;;4.35;100.00;102419.88;4875396;29;20525;-80
2023/03/28 07:52:57;;;;;;;38.30;10.40;;;;;;;4.72;100.00;102426.97;4899363;29;20047;-82
2023/03/28 07:55:24;;;;;;;35.67;10.60;;;;;;;4.94;100.00;102426.34;4904666;29;20036;-80
2023/03/28 07:57:52;;;;;;;26.52;8.80;;;;;;;5.28;100.00;102420.75;4911037;29;20042;-81
2023/03/28 08:00:21;;;;;;;27.27;8.73;;;;;;;5.78;100.00;102392.84;4881259;29;20114;-80
2023/03/28 08:02:47;;;;;;;39.67;8.38;;;;;;;5.66;100.00;102407.75;4888510;29;20070;-81
2023/03/28 08:05:12;;;;;;;39.40;9.40;;;;;;;5.91;100.00;102425.94;4874622;29;20124;-82
2023/03/28 08:07:40;;;;;;;23.75;7.82;;;;;;;5.97;100.00;102408.53;4872969;29;20040;-81
2023/03/28 08:10:08;;;;;;;31.95;8.57;;;;;;;6.04;100.00;102407.41;4875292;29;20036;-81
2023/03/28 08:12:34;;;;;;;30.05;8.18;;;;;;;6.06;100.00;102413.66;4888595;29;20076;-81
2023/03/28 08:15:01;;;;;;;24.35;8.13;;;;;;;6.17;100.00;102414.19;4875236;29;20040;-80
2023/03/28 08:17:27;;;;;;;28.70;8.20;;;;;;;6.60;100.00;102412.59;4871748;29;20128;-80
2023/03/28 08:19:52;;;;;;;23.60;8.30;;;;;;;6.44;100.00;102409.59;4892988;29;20059;-81
2023/03/28 08:22:18;;;;;;;24.58;7.75;;;;;;;6.59;100.00;102410.84;4871073;29;20127;-82
2023/03/28 08:24:44;;;;;;;26.13;8.10;;;;;;;6.60;100.00;102415.34;4886906;29;20108;-81
2023/03/28 08:27:10;;;;;;;24.60;7.72;;;;;;;6.43;100.00;102393.31;4888875;29;20047;-81
2023/03/28 08:29:36;;;;;;;31.08;8.30;;;;;;;6.38;100.00;102407.09;4886887;29;20043;-80
2023/03/28 08:32:06;;;;;;;24.60;6.93;;;;;;;5.95;100.00;102375.06;4904441;29;20033;-80
2023/03/28 08:34:31;;;;;;;35.42;7.68;;;;;;;6.23;100.00;102381.34;4906118;29;20107;-80
2023/03/28 08:36:58;;;;;;;20.23;7.10;;;;;;;6.97;100.00;102397.59;4905924;29;20095;-81
2023/03/28 08:39:24;;;;;;;22.48;6.88;;;;;;;6.80;100.00;102400.09;4874792;29;20036;-81
2023/03/28 08:42:14;;;;;;;21.40;6.32;;;;;;;7.31;100.00;102409.91;4906856;29;20044;-81
2023/03/28 08:44:59;;;;;;;18.15;6.00;;;;;;;7.30;100.00;102410.84;4898910;29;20041;-81
2023/03/28 08:47:30;;;;;;;19.73;6.00;;;;;;;7.67;100.00;102406.59;4890167;29;20039;-80
2023/03/28 08:50:06;;;;;;;22.58;5.90;;;;;;;7.79;100.00;102402.47;4888425;29;20028;-80
2023/03/28 08:52:33;;;;;;;24.33;4.90;;;;;;;7.59;100.00;102400.59;4903939;29;20032;-80
2023/03/28 08:55:05;;;;;;;18.75;4.47;;;;;;;7.50;100.00;102396.38;4903093;29;20545;-80
2023/03/28 08:57:33;;;;;;;22.70;5.78;;;;;;;7.97;100.00;102406.25;4873139;29;20032;-81
2023/03/28 09:00:19;;;;;;;17.77;4.45;;;;;;;8.26;100.00;102404.97;4903341;29;20115;-81
2023/03/28 09:02:46;;;;;;;15.38;3.60;;;;;;;8.63;100.00;102391.53;4889697;29;20388;-83
2023/03/28 09:05:20;;;;;;;15.27;3.10;;;;;;;7.77;100.00;102396.16;4880021;29;20040;-81
2023/03/28 09:08:05;;;;;;;15.30;3.08;;;;;;;7.93;100.00;102395.53;4883391;29;20044;-79
2023/03/28 09:10:40;;;;;;;21.02;4.20;;;;;;;8.35;100.00;102373.66;4887468;29;20044;-79
2023/03/28 09:13:12;;;;;;;17.73;3.20;;;;;;;8.51;99.77;102382.06;4903235;29;20036;-79
2023/03/28 09:16:15;;;;;;;10.40;3.50;;;;;;;8.59;100.00;102387.16;4902309;29;20060;-79
2023/03/28 09:19:14;;;;;;;9.18;2.90;;;;;;;8.04;99.68;102382.31;4905252;29;20047;-80
2023/03/28 09:21:58;;;;;;;16.30;2.60;;;;;;;8.25;100.00;102383.22;4906859;29;20509;-80
2023/03/28 09:24:51;;;;;;;9.27;2.38;;;;;;;7.44;98.11;102385.72;4897090;29;20037;-81
2023/03/28 09:27:44;;;;;;;15.90;2.28;;;;;;;7.56;99.53;102378.91;4918231;29;20048;-81
2023/03/28 09:30:20;;;;;;;12.98;2.60;;;;;;;7.60;97.48;102374.22;4887531;29;20504;-80
2023/03/28 09:32:48;;;;;;;12.45;2.80;;;;;;;7.34;100.00;102362.53;4886669;29;20048;-81
2023/03/28 09:35:20;;;;;;;22.30;3.70;;;;;;;7.45;100.00;102368.44;4870060;29;20551;-80
2023/03/28 09:38:04;;;;;;;16.50;3.05;;;;;;;7.45;98.92;102373.03;4888477;29;20044;-80
2023/03/28 09:40:36;;;;;;;10.88;2.70;;;;;;;7.63;99.82;102376.81;4890843;29;20068;-81
2023/03/28 09:43:39;;;;;;;12.27;4.15;;;;;;;7.45;100.00;102364.84;4896413;29;20404;-80
2023/03/28 09:46:14;;;;;;;12.32;2.80;;;;;;;7.93;95.03;102368.25;4914893;29;20067;-84
2023/03/28 09:48:40;;;;;;;12.07;2.72;;;;;;;8.04;94.20;102366.81;4893971;29;20181;-83
2023/03/28 09:51:12;;;;;;;16.63;3.42;;;;;;;8.55;95.07;102361.84;4879234;29;20119;-85
2023/03/28 09:53:38;;;;;;;12.17;2.87;;;;;;;8.28;84.72;102366.72;4896789;29;20055;-82
2023/03/28 09:56:33;;;;;;;9.57;2.15;;;;;;;7.91;82.22;102362.88;4874222;29;20296;-82
2023/03/28 09:59:03;;;;;;;6.65;2.17;;;;;;;7.61;84.62;102359.59;4887024;29;20126;-81
2023/03/28 10:01:45;;;;;;;11.57;3.22;;;;;;;7.83;87.31;102365.91;4896944;29;20091;-83
2023/03/28 10:04:20;;;;;;;21.20;4.40;;;;;;;7.66;83.78;102344.84;4898784;29;20111;-82
2023/03/28 10:06:47;;;;;;;9.68;3.15;;;;;;;7.70;88.16;102330.13;4883176;29;20052;-81
2023/03/28 10:09:27;;;;;;;14.57;2.90;;;;;;;7.70;83.38;102341.03;4871348;29;20076;-82
2023/03/28 10:12:08;;;;;;;10.27;3.10;;;;;;;7.93;86.51;102341.00;4870720;29;20033;-82
2023/03/28 10:14:38;;;;;;;11.02;2.95;;;;;;;7.72;82.54;102336.41;4904578;29;20115;-83
2023/03/28 10:17:09;;;;;;;9.15;2.53;;;;;;;7.85;85.78;102331.28;4908220;29;20071;-83
2023/03/28 10:19:38;;;;;;;15.45;3.03;;;;;;;8.04;87.11;102334.09;4908020;29;20373;-82
2023/03/28 10:22:22;;;;;;;10.82;2.50;;;;;;;7.77;87.94;102325.28;4926114;29;20032;-81
2023/03/28 10:24:48;;;;;;;17.92;3.67;;;;;;;8.16;82.81;102329.94;4906981;29;20036;-82
2023/03/28 10:27:24;;;;;;;13.57;3.50;;;;;;;7.99;84.28;102311.59;4894648;29;20096;-82
2023/03/28 10:29:54;;;;;;;17.35;3.65;;;;;;;7.87;86.24;102326.69;4927244;29;20044;-82
2023/03/28 10:32:30;;;;;;;13.43;4.40;;;;;;;7.74;86.00;102300.91;4905928;29;20055;-82
2023/03/28 10:35:05;;;;;;;15.45;3.67;;;;;;;8.00;83.82;102312.47;4890469;29;20088;-83
2023/03/28 10:37:32;;;;;;;15.55;3.75;;;;;;;7.60;84.44;102287.00;4891028;29;20052;-82
2023/03/28 10:40:05;;;;;;;14.70;4.00;;;;;;;7.93;84.57;102308.25;4875226;29;20032;-82
2023/03/28 10:42:45;;;;;;;14.45;3.97;;;;;;;8.05;78.06;102300.41;4909466;29;20112;-82
2023/03/28 10:45:29;;;;;;;16.85;3.60;;;;;;;7.91;75.85;102300.16;4907204;29;20499;-88
2023/03/28 10:48:02;;;;;;;16.48;4.90;;;;;;;7.79;83.67;102282.50;4925317;29;20385;-86
2023/03/28 10:50:36;;;;;;;17.27;4.82;;;;;;;8.19;81.07;102279.81;4893342;29;20024;-84
2023/03/28 10:53:17;;;;;;;18.42;5.13;;;;;;;8.13;80.93;102286.41;4909975;29;20488;-85
2023/03/28 10:56:05;;;;;;;17.52;4.68;;;;;;;8.46;81.54;102280.38;4893718;29;20024;-86
2023/03/28 10:58:36;;;;;;;16.10;3.97;;;;;;;8.34;79.75;102280.94;4910784;29;20036;-86
2023/03/28 11:01:23;;;;;;;11.27;2.67;;;;;;;8.28;73.83;102277.53;4890582;29;20056;-84
2023/03/28 11:04:04;;;;;;;32.58;3.38;;;;;;;8.23;74.79;102274.13;4890576;29;20080;-84
2023/03/28 11:06:51;;;;;;;10.98;3.28;;;;;;;8.70;75.57;102264.66;4922872;29;20039;-84
2023/03/28 11:09:23;;;;;;;13.00;3.80;;;;;;;8.38;76.60;102257.97;4891434;29;20079;-85
2023/03/28 11:12:21;;;;;;;8.17;3.10;;;;;;;8.31;71.74;102259.25;4894899;29;20040;-83
2023/03/28 11:15:13;;;;;;;11.60;2.85;;;;;;;8.80;67.48;102255.06;4910786;29;20491;-83
2023/03/28 11:18:02;;;;;;;7.25;2.10;;;;;;;8.80;63.29;102257.78;4895252;29;20040;-83
2023/03/28 11:20:39;;;;;;;10.45;2.55;;;;;;;9.18;67.81;102254.09;4918039;29;20064;-84
2023/03/28 11:23:23;;;;;;;18.20;3.28;;;;;;;9.85;64.68;102251.56;4918086;29;20045;-83
2023/03/28 11:26:09;;;;;;;27.88;4.20;;;;;;;9.95;68.13;102239.16;4907810;29;20040;-83
2023/03/28 11:28:58;;;;;;;11.88;3.47;;;;;;;9.44;65.23;102211.75;4893957;29;20032;-83
2023/03/28 11:31:52;;;;;;;8.45;2.78;;;;;;;9.57;63.35;102239.34;4934241;29;20084;-84
2023/03/28 11:34:20;;;;;;;17.13;3.55;;;;;;;9.38;63.52;102231.25;4928581;29;20031;-84
2023/03/28 11:37:02;;;;;;;17.15;3.58;;;;;;;9.11;65.44;102220.75;4925031;29;20047;-84